Seadawn — WBB5945 — position and weather

sailwx.info

Track history (hours):
 
Tides and Currents Weather Stations Pressure Air Temp Water Temp Dewpoint Dewpoint Depression Visibility Wind Speed Wind Dir Waves Ship Positions

Seadawn

Owner: SEADAWN FISHERIES INC, NEWPORT, OR. More information available from US FCC via Universal Licensing System and Coast Guard Vessel Documentation Center.

Last reported at 2017-Nov-03 16:13 UTC. Time now 2017-Nov-19 20:03 UTC.
Position N 47°40' W 122°23'.
Warning: this ship's position is 16 days out of date.

Length 37 m.

Type: Fishing. MMSI: 367372000.

Date/timePositionNaut miles runAvg speedWind from/ knotsBaromVisibWave heightAir tempDewpointWater temp
2017-Nov-03 16:13N 47°40' W 122°23'0 0.0
2017-Nov-03 16:00N 47°40' W 122°23'0 0.0
2017-Nov-03 15:30N 47°40' W 122°23'0 0.4
2017-Nov-03 15:00N 47°40' W 122°23'1 2.0
2017-Nov-03 14:30N 47°40' W 122°24'4 7.0
2017-Nov-03 14:00N 47°44' W 122°26'510.1
2017-Nov-03 13:30N 47°48' W 122°28'510.8
2017-Nov-03 13:00N 47°54' W 122°30'5 9.9
2017-Nov-03 12:30N 47°57' W 122°35'1010.0
2017-Nov-03 11:28N 48°07' W 122°41'711.6
2017-Nov-03 10:51N 48°11' W 122°50'410.1
2017-Nov-03 10:30N 48°11' W 122°55'510.4
2017-Nov-03 10:00N 48°12' W 123°03'611.1
2017-Nov-03 09:30N 48°12' W 123°11'510.6
2017-Nov-03 09:00N 48°12' W 123°19'510.5
2017-Nov-03 08:30N 48°12' W 123°27'5 9.9
2017-Nov-03 08:00N 48°12' W 123°35'4 9.2
2017-Nov-03 07:30N 48°12' W 123°41'5 9.4
2017-Nov-03 07:00N 48°12' W 123°48'5 9.2
2017-Nov-03 06:30N 48°12' W 123°55'9 9.2
2017-Nov-03 05:30N 48°16' W 124°08'4 8.1
2017-Nov-03 04:59N 48°18' W 124°14'4 7.6
2017-Nov-03 04:30N 48°19' W 124°19'4 7.6
2017-Nov-03 03:59N 48°21' W 124°24'4 7.6
2017-Nov-03 03:30N 48°22' W 124°29'4 8.2
2017-Nov-03 03:01N 48°24' W 124°35'4 7.4
2017-Nov-03 02:30N 48°25' W 124°40'4 7.9
2017-Nov-03 02:00N 48°25' W 124°46'4 8.8
2017-Nov-03 01:30N 48°21' W 124°48'7 9.3
2017-Nov-03 00:44N 48°14' W 124°51'76 8.7
2017-Nov-02 16:03N 46°60' W 124°28'0 9.3
2017-Nov-02 16:01N 46°60' W 124°27'5 9.5
2017-Nov-02 15:30N 46°55' W 124°26'5 9.5
2017-Nov-02 15:00N 46°50' W 124°24'5 9.5
2017-Nov-02 14:31N 46°46' W 124°22'5 9.7
2017-Nov-02 14:00N 46°41' W 124°22'5 9.7
2017-Nov-02 13:31N 46°36' W 124°21'5 9.4
2017-Nov-02 13:00N 46°31' W 124°21'5 9.5
2017-Nov-02 12:30N 46°27' W 124°20'5 9.3
2017-Nov-02 12:00N 46°22' W 124°20'5 9.3
2017-Nov-02 11:31N 46°17' W 124°20'5 9.0
2017-Nov-02 11:00N 46°13' W 124°19'4 8.9
2017-Nov-02 10:30N 46°09' W 124°17'5 9.2
2017-Nov-02 10:00N 46°04' W 124°17'5 9.5
2017-Nov-02 09:30N 45°59' W 124°16'5 9.5
2017-Nov-02 09:00N 45°54' W 124°15'714.3
2017-Nov-02 08:30N 45°47' W 124°15'2 4.3
2017-Nov-02 08:00N 45°45' W 124°14'5 9.5
2017-Nov-02 07:30N 45°40' W 124°14'5 9.5
2017-Nov-02 07:01N 45°36' W 124°13'5 9.4
2017-Nov-02 06:30N 45°31' W 124°13'5 9.4
2017-Nov-02 06:00N 45°26' W 124°12'5 9.5
2017-Nov-02 05:31N 45°22' W 124°11'  
Track history (hours):
 
Tides and Currents Weather Stations Pressure Air Temp Water Temp Dewpoint Dewpoint Depression Visibility Wind Speed Wind Dir Waves Ship Positions

Seadawn

Owner: SEADAWN FISHERIES INC, NEWPORT, OR. More information available from US FCC via Universal Licensing System and Coast Guard Vessel Documentation Center.

Last reported at 2017-Nov-03 16:13 UTC. Time now 2017-Nov-19 20:03 UTC.
Position N 47°40' W 122°23'.
Warning: this ship's position is 16 days out of date.

Length 37 m.

Type: Fishing. MMSI: 367372000.

Date/timePositionNaut miles runAvg speedWind from/ knotsBaromVisibWave heightAir tempDewpointWater temp
2017-Nov-03 16:13N 47°40' W 122°23'0 0.0
2017-Nov-03 16:00N 47°40' W 122°23'0 0.0
2017-Nov-03 15:30N 47°40' W 122°23'0 0.4
2017-Nov-03 15:00N 47°40' W 122°23'1 2.0
2017-Nov-03 14:30N 47°40' W 122°24'4 7.0
2017-Nov-03 14:00N 47°44' W 122°26'510.1
2017-Nov-03 13:30N 47°48' W 122°28'510.8
2017-Nov-03 13:00N 47°54' W 122°30'5 9.9
2017-Nov-03 12:30N 47°57' W 122°35'1010.0
2017-Nov-03 11:28N 48°07' W 122°41'711.6
2017-Nov-03 10:51N 48°11' W 122°50'410.1
2017-Nov-03 10:30N 48°11' W 122°55'510.4
2017-Nov-03 10:00N 48°12' W 123°03'611.1
2017-Nov-03 09:30N 48°12' W 123°11'510.6
2017-Nov-03 09:00N 48°12' W 123°19'510.5
2017-Nov-03 08:30N 48°12' W 123°27'5 9.9
2017-Nov-03 08:00N 48°12' W 123°35'4 9.2
2017-Nov-03 07:30N 48°12' W 123°41'5 9.4
2017-Nov-03 07:00N 48°12' W 123°48'5 9.2
2017-Nov-03 06:30N 48°12' W 123°55'9 9.2
2017-Nov-03 05:30N 48°16' W 124°08'4 8.1
2017-Nov-03 04:59N 48°18' W 124°14'4 7.6
2017-Nov-03 04:30N 48°19' W 124°19'4 7.6
2017-Nov-03 03:59N 48°21' W 124°24'4 7.6
2017-Nov-03 03:30N 48°22' W 124°29'4 8.2
2017-Nov-03 03:01N 48°24' W 124°35'4 7.4
2017-Nov-03 02:30N 48°25' W 124°40'4 7.9
2017-Nov-03 02:00N 48°25' W 124°46'4 8.8
2017-Nov-03 01:30N 48°21' W 124°48'7 9.3
2017-Nov-03 00:44N 48°14' W 124°51'76 8.7
2017-Nov-02 16:03N 46°60' W 124°28'0 9.3
2017-Nov-02 16:01N 46°60' W 124°27'5 9.5
2017-Nov-02 15:30N 46°55' W 124°26'5 9.5
2017-Nov-02 15:00N 46°50' W 124°24'5 9.5
2017-Nov-02 14:31N 46°46' W 124°22'5 9.7
2017-Nov-02 14:00N 46°41' W 124°22'5 9.7
2017-Nov-02 13:31N 46°36' W 124°21'5 9.4
2017-Nov-02 13:00N 46°31' W 124°21'5 9.5
2017-Nov-02 12:30N 46°27' W 124°20'5 9.3
2017-Nov-02 12:00N 46°22' W 124°20'5 9.3
2017-Nov-02 11:31N 46°17' W 124°20'5 9.0
2017-Nov-02 11:00N 46°13' W 124°19'4 8.9
2017-Nov-02 10:30N 46°09' W 124°17'5 9.2
2017-Nov-02 10:00N 46°04' W 124°17'5 9.5
2017-Nov-02 09:30N 45°59' W 124°16'5 9.5
2017-Nov-02 09:00N 45°54' W 124°15'714.3
2017-Nov-02 08:30N 45°47' W 124°15'2 4.3
2017-Nov-02 08:00N 45°45' W 124°14'5 9.5
2017-Nov-02 07:30N 45°40' W 124°14'5 9.5
2017-Nov-02 07:01N 45°36' W 124°13'5 9.4
2017-Nov-02 06:30N 45°31' W 124°13'5 9.4
2017-Nov-02 06:00N 45°26' W 124°12'5 9.5
2017-Nov-02 05:31N 45°22' W 124°11'  

Dump ship's entire track history